Time;durP1;ratioP1;P1;durP2;ratioP2;P2;SDS_P1;SDS_P2;PMS_P1;PMS_P2;Temp;Humidity;BMP_temperature;BMP_pressure;BME280_temperature;BME280_humidity;BME280_pressure;Samples;Min_cycle;Max_cycle;Signal;HPM_P1;HPM_P2
2021/03/25 00:00:48;;;;;;;12.73;7.00;;;5.80;64.50;;;4.36;60.89;96484.94;5016459;28;20129;-69
2021/03/25 00:03:16;;;;;;;14.30;7.25;;;5.70;64.60;;;4.33;61.92;96485.22;5027267;28;20128;-69
2021/03/25 00:05:42;;;;;;;16.05;7.10;;;5.80;64.60;;;4.29;61.28;96484.66;5031560;28;20108;-69
2021/03/25 00:08:12;;;;;;;14.13;6.22;;;5.70;64.70;;;4.24;62.10;96482.47;5031587;28;20122;-69
2021/03/25 00:10:38;;;;;;;11.13;6.20;;;5.60;64.90;;;4.19;61.14;96476.88;5017474;28;20161;-68
2021/03/25 00:13:04;;;;;;;13.35;7.03;;;5.60;65.10;;;4.16;61.55;96479.75;5051823;28;20029;-69
2021/03/25 00:15:30;;;;;;;12.88;6.25;;;5.50;65.10;;;4.15;61.52;96482.50;5034501;28;20056;-68
2021/03/25 00:17:56;;;;;;;14.10;5.80;;;5.60;65.30;;;4.16;61.27;96479.75;5030505;28;20092;-69
2021/03/25 00:20:22;;;;;;;12.32;6.13;;;5.60;65.00;;;4.17;61.41;96476.19;5015474;28;20030;-69
2021/03/25 00:22:47;;;;;;;15.15;6.10;;;5.70;64.70;;;4.15;61.31;96477.28;5014667;28;20477;-69
2021/03/25 00:25:15;;;;;;;9.45;5.88;;;5.60;64.80;;;4.10;62.09;96472.50;5031369;28;20049;-69
2021/03/25 00:27:41;;;;;;;10.73;5.90;;;5.50;65.30;;;4.08;61.82;96476.22;5046304;28;20720;-70
2021/03/25 00:30:08;;;;;;;9.98;5.68;;;5.50;65.40;;;4.07;61.90;96470.16;5034858;28;20033;-69
2021/03/25 00:32:34;;;;;;;11.45;6.03;;;5.50;65.30;;;4.03;61.68;96463.59;5012746;28;20086;-69
2021/03/25 00:35:00;;;;;;;10.52;6.03;;;5.50;65.30;;;4.00;62.05;96469.09;5014807;28;20461;-69
2021/03/25 00:37:26;;;;;;;9.45;5.32;;;5.50;65.30;;;4.01;62.26;96470.72;5014866;28;20390;-69
2021/03/25 00:39:52;;;;;;;10.07;5.65;;;5.50;65.30;;;4.02;61.74;96463.75;5023221;28;20041;-69
2021/03/25 00:42:17;;;;;;;9.40;5.50;;;5.50;65.10;;;4.01;61.52;96465.53;5018190;28;20033;-70
2021/03/25 00:44:43;;;;;;;8.00;5.10;;;5.50;65.00;;;3.98;62.09;96450.19;5030314;28;20057;-68
2021/03/25 00:47:09;;;;;;;9.60;5.18;;;5.40;65.20;;;3.98;62.39;96453.63;5014511;28;20044;-68
2021/03/25 00:49:35;;;;;;;11.02;5.43;;;5.50;65.10;;;3.92;61.88;96458.56;5021548;28;20025;-69
2021/03/25 00:52:02;;;;;;;13.70;5.55;;;5.30;65.50;;;3.85;62.24;96449.66;5030356;28;20509;-69
2021/03/25 00:54:27;;;;;;;9.55;5.43;;;5.20;66.00;;;3.82;62.09;96447.31;5032452;28;20085;-70
2021/03/25 00:56:53;;;;;;;8.90;5.40;;;5.20;66.00;;;3.82;62.12;96455.13;5030809;28;20034;-69
2021/03/25 00:59:19;;;;;;;6.75;4.70;;;5.20;66.10;;;3.80;62.43;96449.25;5014696;28;20029;-69
2021/03/25 01:01:45;;;;;;;9.02;5.25;;;5.30;66.10;;;3.80;62.65;96452.66;5017210;28;20030;-70
2021/03/25 01:04:10;;;;;;;9.45;5.22;;;5.30;65.80;;;3.80;62.51;96459.66;4998162;28;20056;-70
2021/03/25 01:06:36;;;;;;;9.40;6.32;;;5.20;66.00;;;3.77;62.74;96459.94;5014383;28;20038;-69
2021/03/25 01:09:20;;;;;;;10.93;5.68;;;5.10;66.00;;;3.75;64.30;96457.47;5031897;28;20528;-69
2021/03/25 01:11:45;;;;;;;11.65;6.30;;;5.20;66.10;;;3.71;62.56;96458.72;5016770;28;20034;-69
2021/03/25 01:14:11;;;;;;;11.88;5.93;;;5.20;66.00;;;3.68;63.03;96459.00;4997952;28;20587;-69
2021/03/25 01:16:42;;;;;;;9.38;5.57;;;5.10;66.40;;;3.65;63.72;96454.06;5023280;28;20504;-69
2021/03/25 01:19:20;;;;;;;9.43;5.72;;;5.10;66.20;;;3.61;64.87;96458.69;5017736;28;20045;-69
2021/03/25 01:21:46;;;;;;;9.43;5.50;;;5.10;66.40;;;3.55;62.95;96454.03;5042262;28;20053;-70
2021/03/25 01:24:12;;;;;;;10.00;6.20;;;5.10;66.30;;;3.53;62.91;96453.38;5013982;28;20101;-69
2021/03/25 01:26:38;;;;;;;11.25;5.65;;;5.00;66.40;;;3.52;63.17;96456.94;5017487;28;20040;-69
2021/03/25 01:29:04;;;;;;;12.23;6.32;;;5.00;66.30;;;3.49;63.26;96449.41;5016120;28;20116;-69
2021/03/25 01:31:30;;;;;;;10.05;5.85;;;5.00;66.20;;;3.42;63.09;96457.91;5030138;28;20113;-69
2021/03/25 01:33:56;;;;;;;14.27;5.65;;;4.90;66.60;;;3.40;63.50;96449.41;5013471;28;20601;-69
2021/03/25 01:36:21;;;;;;;9.98;5.80;;;4.90;66.40;;;3.38;63.09;96446.91;5015521;28;20053;-69
2021/03/25 01:38:48;;;;;;;9.85;5.15;;;4.90;66.50;;;3.35;63.22;96444.59;5017166;28;20496;-69
2021/03/25 01:41:14;;;;;;;7.78;4.93;;;4.90;66.40;;;3.32;63.30;96447.47;5046469;28;20370;-69
2021/03/25 01:43:42;;;;;;;6.90;4.40;;;4.80;66.30;;;3.29;63.56;96442.53;5028762;28;20043;-69
2021/03/25 01:46:27;;;;;;;9.93;5.10;;;4.80;66.50;;;3.26;65.27;96448.00;5030712;28;20420;-69
2021/03/25 01:49:04;;;;;;;8.45;5.13;;;4.80;66.70;;;3.22;64.87;96442.28;5046657;28;20045;-69
2021/03/25 01:52:07;;;;;;;10.27;4.32;;;4.70;66.60;;;3.19;65.49;96442.53;5034017;28;20041;-70
2021/03/25 01:54:43;;;;;;;9.02;4.20;;;4.70;66.60;;;3.16;65.44;96439.38;5050439;28;20404;-69
2021/03/25 01:57:39;;;;;;;7.68;4.55;;;4.70;66.70;;;3.14;65.46;96433.47;5045069;28;20044;-69
2021/03/25 02:00:22;;;;;;;10.75;4.15;;;4.70;66.60;;;3.12;65.61;96436.22;5045607;28;20053;-69
2021/03/25 02:03:41;;;;;;;8.93;4.63;;;4.70;66.40;;;3.10;65.97;96434.72;5050165;28;20411;-69
2021/03/25 02:06:29;;;;;;;8.23;4.60;;;4.70;66.70;;;3.05;65.35;96428.16;5020200;28;20557;-69
2021/03/25 02:09:21;;;;;;;8.68;4.68;;;4.60;66.80;;;3.00;65.66;96427.72;5029749;28;20175;-69
2021/03/25 02:12:15;;;;;;;8.38;4.05;;;4.60;66.80;;;2.97;65.36;96422.81;5024166;28;20417;-70
2021/03/25 02:14:45;;;;;;;11.18;4.07;;;4.50;66.90;;;2.91;64.93;96422.50;5037490;28;20033;-69
2021/03/25 02:17:24;;;;;;;6.73;4.07;;;4.40;67.30;;;2.86;65.40;96422.91;5039304;28;20098;-69
2021/03/25 02:20:19;;;;;;;7.38;4.70;;;4.40;67.50;;;2.83;65.68;96415.38;5047812;28;20041;-69
2021/03/25 02:23:00;;;;;;;7.35;3.90;;;4.40;67.30;;;2.84;65.62;96426.59;5049644;28;20044;-70
2021/03/25 02:25:35;;;;;;;7.03;3.80;;;4.50;67.20;;;2.83;65.64;96425.78;5030268;28;20476;-69
2021/03/25 02:28:21;;;;;;;7.78;4.03;;;4.50;67.20;;;2.82;65.65;96418.94;5012357;28;20049;-70
2021/03/25 02:30:56;;;;;;;7.80;4.35;;;4.50;67.10;;;2.83;65.47;96420.59;5016642;28;20053;-68
2021/03/25 02:33:22;;;;;;;7.10;3.72;;;4.50;67.00;;;2.83;64.11;96420.59;5013789;28;20405;-69
2021/03/25 02:35:57;;;;;;;8.20;4.55;;;4.50;66.70;;;2.84;65.87;96427.41;5032121;28;20056;-71
2021/03/25 02:38:36;;;;;;;8.25;4.03;;;4.50;66.70;;;2.82;65.39;96426.72;5001755;28;20031;-70
2021/03/25 02:41:32;;;;;;;6.93;4.18;;;4.50;66.70;;;2.80;66.20;96422.63;5010734;28;20037;-69
2021/03/25 02:44:10;;;;;;;6.78;3.97;;;4.50;66.80;;;2.78;65.97;96420.16;5028162;28;20527;-69
2021/03/25 02:47:02;;;;;;;8.57;3.92;;;4.50;66.70;;;2.79;66.81;96416.59;5017091;28;20045;-69
2021/03/25 02:49:29;;;;;;;10.07;4.10;;;4.50;66.70;;;2.76;64.54;96407.31;5032883;28;20106;-69
2021/03/25 02:52:15;;;;;;;7.97;4.13;;;4.40;67.00;;;2.78;66.62;96414.97;5032042;28;20029;-69
2021/03/25 02:54:41;;;;;;;7.95;4.15;;;4.50;66.70;;;2.77;64.13;96413.31;5028822;28;20034;-69
2021/03/25 02:57:25;;;;;;;7.10;4.28;;;4.40;66.70;;;2.76;65.84;96420.31;5012442;28;20041;-70
2021/03/25 02:59:51;;;;;;;10.45;4.28;;;4.40;66.80;;;2.72;64.69;96415.50;5011435;28;20036;-70
2021/03/25 03:02:40;;;;;;;8.27;4.53;;;4.40;66.80;;;2.72;65.95;96412.91;5012439;28;20445;-69
2021/03/25 03:05:15;;;;;;;6.47;3.50;;;4.40;66.70;;;2.70;65.66;96415.59;5028780;28;20037;-70
2021/03/25 03:08:15;;;;;;;7.65;4.10;;;4.40;66.70;;;2.68;65.89;96412.31;5029780;28;20531;-69
2021/03/25 03:10:51;;;;;;;6.38;3.90;;;4.40;66.80;;;2.66;65.45;96414.25;5001705;28;20034;-69
2021/03/25 03:13:17;;;;;;;8.40;3.75;;;4.30;66.90;;;2.64;64.87;96410.13;5034582;28;20037;-69
2021/03/25 03:16:04;;;;;;;8.63;4.40;;;4.30;67.00;;;2.62;66.47;96406.84;5018056;28;20086;-71
2021/03/25 03:18:51;;;;;;;5.88;3.65;;;4.20;67.00;;;2.62;66.60;96410.28;5027566;28;20045;-69
2021/03/25 03:21:44;;;;;;;7.13;3.92;;;4.20;66.90;;;2.59;66.85;96410.53;5012469;28;20056;-69
2021/03/25 03:24:10;;;;;;;6.13;3.95;;;4.20;67.10;;;2.55;64.51;96422.16;5015489;28;20219;-69
2021/03/25 03:26:49;;;;;;;5.60;3.15;;;4.20;67.30;;;2.52;66.22;96414.63;4979156;28;20175;-69
2021/03/25 03:29:15;;;;;;;8.50;3.85;;;4.20;67.20;;;2.46;64.78;96413.34;5000612;28;20037;-69
2021/03/25 03:31:50;;;;;;;8.82;3.95;;;4.10;67.50;;;2.42;66.05;96411.97;5028723;28;20068;-69
2021/03/25 03:34:37;;;;;;;7.43;3.33;;;4.00;67.80;;;2.37;66.54;96413.31;5012350;28;20092;-69
2021/03/25 03:37:21;;;;;;;6.07;3.03;;;3.90;68.00;;;2.36;66.46;96411.69;5028463;28;20025;-69
2021/03/25 03:39:48;;;;;;;5.40;2.97;;;3.90;67.80;;;2.33;64.72;96417.13;5013302;28;20469;-70
2021/03/25 03:42:16;;;;;;;6.57;3.10;;;3.90;68.20;;;2.29;65.45;96403.59;5013925;28;20060;-69
2021/03/25 03:44:45;;;;;;;4.63;2.80;;;3.80;68.30;;;2.27;65.99;96404.69;5027732;28;20030;-69
2021/03/25 03:47:13;;;;;;;5.55;3.03;;;3.80;68.30;;;2.26;65.60;96411.63;4998278;28;20374;-69
2021/03/25 03:50:26;;;;;;;8.30;3.38;;;3.80;68.40;;;2.23;66.61;96411.88;5012351;28;20025;-69
2021/03/25 03:52:52;;;;;;;4.40;2.50;;;3.70;68.40;;;2.23;65.28;96411.06;5033279;28;20037;-69
2021/03/25 03:55:19;;;;;;;6.82;2.70;;;3.70;68.50;;;2.23;65.60;96401.50;5048153;28;20062;-69
2021/03/25 03:58:21;;;;;;;4.82;2.47;;;3.80;68.30;;;2.20;67.46;96401.78;5026692;28;20060;-70
2021/03/25 04:01:10;;;;;;;5.15;2.28;;;3.80;68.40;;;2.24;67.48;96405.75;5014932;28;20072;-69
2021/03/25 04:03:47;;;;;;;4.50;2.30;;;3.90;68.30;;;2.26;66.68;96416.00;4996563;28;20103;-69
2021/03/25 04:06:24;;;;;;;4.18;2.28;;;3.90;68.20;;;2.26;66.02;96406.44;5002887;28;20033;-69
2021/03/25 04:09:30;;;;;;;3.65;2.03;;;4.00;67.80;;;2.29;67.30;96410.56;4981449;28;20029;-69
2021/03/25 04:12:01;;;;;;;3.72;2.17;;;4.00;67.50;;;2.26;65.86;96401.25;4991216;28;20425;-69
2021/03/25 04:14:30;;;;;;;4.43;2.22;;;3.90;67.50;;;2.30;66.07;96410.44;5024602;28;20030;-69
2021/03/25 04:16:58;;;;;;;3.88;2.20;;;4.00;67.60;;;2.30;65.59;96402.66;5012187;28;20061;-70
2021/03/25 04:19:28;;;;;;;4.22;2.22;;;4.00;67.50;;;2.30;65.79;96413.03;4999134;28;20525;-69
2021/03/25 04:22:02;;;;;;;5.22;2.70;;;4.00;67.30;;;2.30;66.42;96418.22;5027520;28;20493;-70
2021/03/25 04:24:31;;;;;;;5.22;3.03;;;4.00;67.10;;;2.29;65.51;96416.59;5023366;28;20087;-69
2021/03/25 04:27:10;;;;;;;4.75;2.40;;;4.00;67.10;;;2.28;66.70;96425.31;4995843;28;20087;-69
2021/03/25 04:30:00;;;;;;;6.05;2.60;;;4.00;67.30;;;2.27;67.07;96413.28;5032140;28;20038;-69
2021/03/25 04:32:26;;;;;;;3.53;2.28;;;4.00;67.40;;;2.25;65.44;96415.16;5019790;28;20386;-70
2021/03/25 04:34:52;;;;;;;5.97;2.78;;;3.90;67.50;;;2.24;65.34;96412.72;4986197;28;20041;-69
2021/03/25 04:37:18;;;;;;;17.20;10.40;;;4.00;67.20;;;2.24;65.70;96413.53;5015338;28;20064;-69
2021/03/25 04:39:43;;;;;;;9.93;6.18;;;3.90;67.10;;;2.23;65.54;96419.69;5034254;28;20525;-72
2021/03/25 04:42:09;;;;;;;9.40;6.13;;;4.00;67.10;;;2.24;65.72;96423.09;5014548;28;20056;-69
2021/03/25 04:44:41;;;;;;;6.05;3.38;;;3.90;67.00;;;2.20;66.19;96419.94;5017806;28;20053;-69
2021/03/25 04:47:42;;;;;;;5.80;3.28;;;3.90;67.10;;;2.18;66.92;96421.84;5024643;28;20516;-69
2021/03/25 04:50:28;;;;;;;19.33;12.82;;;3.90;67.30;;;2.18;67.25;96411.47;5020993;28;20033;-69
2021/03/25 04:53:21;;;;;;;7.55;3.60;;;3.80;67.50;;;2.15;67.28;96414.31;5034700;28;20044;-69
2021/03/25 04:55:46;;;;;;;8.25;2.55;;;3.90;67.30;;;2.14;65.39;96418.69;5022893;28;20413;-70
2021/03/25 04:58:15;;;;;;;3.50;2.13;;;3.90;67.10;;;2.15;65.57;96415.13;5033127;28;20040;-68
2021/03/25 05:00:42;;;;;;;4.50;1.90;;;3.90;67.00;;;2.13;65.72;96416.22;5028206;28;21368;-68
2021/03/25 05:03:16;;;;;;;4.78;2.33;;;3.90;66.90;;;2.13;66.93;96413.63;5020973;28;20450;-65
2021/03/25 05:05:42;;;;;;;7.45;2.50;;;3.90;67.00;;;2.12;65.41;96418.00;5015667;28;20111;-67
2021/03/25 05:08:18;;;;;;;4.18;2.30;;;4.00;66.80;;;2.13;66.85;96416.22;5049814;28;20376;-66
2021/03/25 05:11:06;;;;;;;4.75;2.40;;;3.90;66.90;;;2.15;66.78;96419.50;5041252;28;20126;-64
2021/03/25 05:13:36;;;;;;;4.40;2.20;;;3.90;67.00;;;2.15;66.44;96414.31;5015434;28;20113;-64
2021/03/25 05:16:38;;;;;;;3.53;2.23;;;4.00;66.90;;;2.18;67.27;96419.25;5030041;28;20057;-65
2021/03/25 05:19:47;;;;;;;13.77;7.50;;;4.00;66.80;;;2.19;67.25;96426.09;5031776;28;20287;-67
2021/03/25 05:22:52;;;;;;;5.60;3.00;;;4.00;66.70;;;2.16;66.69;96426.34;5012097;28;20501;-69
2021/03/25 05:25:34;;;;;;;8.07;3.28;;;3.80;66.90;;;2.14;66.78;96423.06;5043002;28;20047;-68
2021/03/25 05:28:16;;;;;;;4.50;2.80;;;3.90;66.90;;;2.14;66.71;96423.06;5047512;28;20033;-68
2021/03/25 05:30:41;;;;;;;5.15;2.72;;;3.90;67.10;;;2.14;65.37;96418.69;5034112;28;20056;-68
2021/03/25 05:33:15;;;;;;;6.13;2.28;;;4.00;66.90;;;2.17;67.11;96422.78;5033240;28;20116;-67
2021/03/25 05:35:46;;;;;;;7.90;4.88;;;4.00;66.80;;;2.20;65.66;96422.53;5017847;28;20029;-68
2021/03/25 05:38:12;;;;;;;7.85;3.80;;;4.10;66.70;;;2.25;65.95;96422.13;5016601;28;20033;-68
2021/03/25 05:40:49;;;;;;;5.28;2.85;;;4.10;66.50;;;2.26;66.85;96422.00;5015467;28;20033;-67
2021/03/25 05:43:58;;;;;;;4.80;3.10;;;4.10;66.50;;;2.30;67.42;96426.00;5033504;28;20035;-68
2021/03/25 05:46:47;;;;;;;3.95;2.40;;;4.20;66.20;;;2.33;67.04;96432.72;5047459;28;20057;-68
2021/03/25 05:49:27;;;;;;;4.78;2.70;;;4.20;66.20;;;2.34;66.68;96432.56;5032735;28;20465;-68
2021/03/25 05:52:20;;;;;;;6.22;3.10;;;4.20;66.20;;;2.36;66.85;96428.09;5047678;28;20036;-68
2021/03/25 05:55:31;;;;;;;6.50;3.78;;;4.20;66.30;;;2.38;66.75;96425.34;5034579;28;20044;-67
2021/03/25 05:58:25;;;;;;;6.35;3.65;;;4.20;66.30;;;2.42;66.38;96432.75;5030253;28;20053;-69
2021/03/25 06:01:21;;;;;;;4.90;3.00;;;4.20;66.20;;;2.50;67.44;96439.06;5033360;28;20043;-68
2021/03/25 06:04:24;;;;;;;5.15;2.55;;;4.40;66.30;;;2.62;68.86;96438.00;5029855;28;20386;-68
2021/03/25 06:07:15;;;;;;;4.07;2.50;;;4.60;68.20;;;2.72;66.67;96442.31;5014038;28;20513;-68
2021/03/25 06:10:11;;;;;;;4.90;2.90;;;4.80;65.60;;;2.86;66.92;96441.09;5025676;28;20049;-69
2021/03/25 06:13:11;;;;;;;4.30;2.65;;;5.10;64.70;;;2.99;66.19;96441.69;5063111;28;20045;-64
2021/03/25 06:15:58;;;;;;;7.38;2.58;;;5.20;63.80;;;3.15;66.20;96440.31;5049674;28;20044;-64
2021/03/25 06:19:13;;;;;;;4.03;2.33;;;5.50;63.20;;;3.31;65.53;96445.81;5029766;28;20036;-64
2021/03/25 06:22:17;;;;;;;4.15;2.20;;;5.70;62.00;;;3.52;64.90;96443.91;5029423;28;20037;-64
2021/03/25 06:25:02;;;;;;;6.20;4.07;;;6.10;61.00;;;3.71;64.49;96442.28;5031427;28;20042;-64
2021/03/25 06:27:53;;;;;;;6.05;3.78;;;6.40;59.70;;;3.90;64.47;96439.66;5045768;28;20065;-68
2021/03/25 06:30:23;;;;;;;7.32;3.00;;;6.60;59.00;;;4.10;64.21;96448.25;5041260;28;20040;-64
2021/03/25 06:33:06;;;;;;;7.53;4.60;;;7.00;58.10;;;4.26;63.93;96441.47;5028018;28;20033;-64
2021/03/25 06:35:37;;;;;;;12.07;6.53;;;7.10;57.50;;;4.44;63.32;96440.75;5033260;28;20046;-69
2021/03/25 06:38:11;;;;;;;6.07;3.22;;;7.40;56.80;;;4.63;63.38;96447.69;5043052;28;20445;-68
2021/03/25 06:40:40;;;;;;;4.82;2.40;;;7.70;55.80;;;4.82;63.38;96452.81;5016676;28;20771;-69
2021/03/25 06:43:29;;;;;;;6.43;2.40;;;7.80;55.40;;;5.00;62.38;96447.66;5016427;28;20036;-68
2021/03/25 06:46:08;;;;;;;4.32;2.30;;;7.90;54.90;;;5.17;61.92;96452.88;5050068;28;20113;-68
2021/03/25 06:49:01;;;;;;;5.60;2.63;;;8.10;54.10;;;5.32;61.17;96450.59;5048378;28;20059;-69
2021/03/25 06:51:33;;;;;;;6.78;2.88;;;8.20;53.30;;;5.49;61.13;96455.00;5026742;28;20033;-70
2021/03/25 06:54:15;;;;;;;5.75;2.50;;;8.60;52.70;;;5.72;61.05;96462.41;5040011;28;20523;-70
2021/03/25 06:56:43;;;;;;;5.35;2.83;;;9.10;51.60;;;5.93;61.52;96457.72;5047989;28;20048;-68
2021/03/25 06:59:29;;;;;;;12.70;7.40;;;9.50;50.10;;;6.23;58.89;96459.06;5011170;28;20539;-70
2021/03/25 07:02:06;;;;;;;9.43;2.92;;;10.00;48.90;;;6.53;59.20;96465.63;5044550;28;20037;-69
2021/03/25 07:04:36;;;;;;;3.92;1.42;;;10.30;46.80;;;6.79;60.24;96470.00;5022687;28;20033;-67
2021/03/25 07:07:04;;;;;;;3.47;1.60;;;10.70;45.40;;;7.12;59.14;96466.56;5012342;28;20087;-69
2021/03/25 07:09:34;;;;;;;4.57;1.45;;;11.20;43.90;;;7.53;58.21;96469.28;5018618;28;20038;-70
2021/03/25 07:12:03;;;;;;;3.75;1.85;;;11.80;42.60;;;7.93;57.76;96465.91;5009184;28;20075;-67
2021/03/25 07:14:40;;;;;;;3.45;1.80;;;12.10;41.30;;;8.33;55.15;96465.03;5031299;28;20124;-67
2021/03/25 07:17:09;;;;;;;3.80;1.88;;;12.60;40.10;;;8.74;57.61;96465.00;5034064;28;20112;-68
2021/03/25 07:19:35;;;;;;;5.05;2.10;;;13.10;39.10;;;9.14;56.40;96472.72;5018985;28;20498;-69
2021/03/25 07:22:21;;;;;;;9.23;1.80;;;13.70;38.10;;;9.62;51.43;96465.59;5037343;28;20219;-71
2021/03/25 07:24:48;;;;;;;4.07;1.65;;;14.20;36.20;;;10.02;55.36;96466.31;5031581;28;20415;-68
2021/03/25 07:27:25;;;;;;;4.45;1.95;;;14.90;35.80;;;10.50;50.36;96474.78;5031119;28;20032;-68
2021/03/25 07:29:59;;;;;;;4.68;1.80;;;15.80;34.40;;;11.01;48.67;96467.81;5036504;28;20079;-70
2021/03/25 07:32:36;;;;;;;5.68;2.00;;;16.60;33.30;;;11.57;48.46;96473.38;5026475;28;20033;-69
2021/03/25 07:35:36;;;;;;;5.72;1.95;;;17.20;31.80;;;12.16;46.07;96467.91;5012461;28;20072;-64
2021/03/25 07:38:16;;;;;;;4.60;1.98;;;18.00;31.10;;;12.70;46.03;96475.25;5000697;28;20137;-69
2021/03/25 07:40:43;;;;;;;6.88;2.00;;;18.30;29.50;;;13.12;50.04;96474.25;5012991;28;20036;-71
2021/03/25 07:43:22;;;;;;;5.82;1.95;;;19.00;29.40;;;13.54;43.53;96457.41;5027187;28;20037;-70
2021/03/25 07:45:48;;;;;;;6.20;2.83;;;18.80;28.70;;;13.93;48.39;96464.63;5021548;28;20060;-72
2021/03/25 07:48:23;;;;;;;6.05;3.10;;;19.20;28.60;;;14.39;42.06;96462.03;5026349;28;20064;-69
2021/03/25 07:50:50;;;;;;;5.45;2.15;;;19.90;27.80;;;14.89;45.30;96466.88;5063819;28;20616;-64
2021/03/25 07:53:27;;;;;;;10.70;2.05;;;20.40;26.80;;;15.25;39.57;96464.56;5067750;28;20063;-70
2021/03/25 07:56:10;;;;;;;6.10;2.28;;;20.50;26.20;;;15.59;39.04;96467.91;5020065;28;20037;-66
2021/03/25 07:58:44;;;;;;;6.60;2.00;;;21.10;26.00;;;15.90;38.94;96461.84;5045611;28;20437;-69
2021/03/25 08:01:19;;;;;;;4.47;1.83;;;21.60;25.10;;;16.20;37.86;96456.75;5031277;28;20033;-71
2021/03/25 08:03:52;;;;;;;5.35;2.00;;;22.10;24.30;;;16.61;39.35;96458.88;5015644;28;20509;-71
2021/03/25 08:06:25;;;;;;;4.43;2.20;;;22.50;23.70;;;17.05;37.27;96452.56;5034184;28;20041;-71
2021/03/25 08:09:09;;;;;;;7.07;2.42;;;23.00;23.50;;;17.44;34.85;96455.81;5040563;28;20123;-66
2021/03/25 08:11:55;;;;;;;5.47;2.45;;;23.40;22.70;;;17.84;35.37;96455.31;5030999;28;20651;-72
2021/03/25 08:14:26;;;;;;;4.40;2.45;;;23.60;22.50;;;18.15;36.85;96457.75;5011494;28;20417;-70
2021/03/25 08:16:58;;;;;;;3.97;2.22;;;24.10;22.10;;;18.34;35.76;96451.31;5017169;28;20030;-63
2021/03/25 08:19:36;;;;;;;4.07;2.35;;;23.70;22.30;;;18.56;33.57;96450.75;5017438;28;20128;-65
2021/03/25 08:22:35;;;;;;;4.80;2.25;;;24.40;21.70;;;18.85;34.03;96452.53;5042914;28;20126;-69
2021/03/25 08:25:30;;;;;;;7.60;2.30;;;24.80;21.20;;;19.21;32.57;96454.09;5010557;28;20037;-68
2021/03/25 08:28:04;;;;;;;4.35;2.33;;;24.80;20.50;;;19.35;32.52;96449.31;5051020;28;20044;-71
2021/03/25 08:30:57;;;;;;;9.35;2.65;;;24.70;21.30;;;19.57;31.09;96449.53;5051618;28;20582;-65
2021/03/25 08:33:58;;;;;;;4.53;2.95;;;25.30;20.80;;;19.79;30.55;96452.38;5070771;28;20055;-70
2021/03/25 08:36:56;;;;;;;8.75;4.35;;;25.50;20.60;;;20.00;30.75;96449.03;5034799;28;20039;-70
2021/03/25 08:39:40;;;;;;;9.20;3.08;;;25.70;20.50;;;20.23;31.81;96457.97;5034067;28;20048;-70
2021/03/25 08:42:40;;;;;;;5.85;3.45;;;26.20;19.90;;;20.39;30.52;96451.84;5036152;28;20104;-67
2021/03/25 08:45:43;;;;;;;5.45;3.45;;;26.10;19.90;;;20.43;29.72;96464.50;4996637;28;20049;-72
2021/03/25 08:48:18;;;;;;;5.95;3.92;;;25.60;20.90;;;20.42;30.67;96457.53;5047759;28;20033;-69
2021/03/25 08:51:11;;;;;;;8.43;4.00;;;24.90;21.20;;;20.50;30.74;96456.31;5056037;28;20113;-70
2021/03/25 08:54:19;;;;;;;6.97;3.97;;;25.50;21.10;;;20.72;29.86;96464.41;5029467;28;20065;-72
2021/03/25 08:57:29;;;;;;;11.25;5.07;;;25.50;21.00;;;20.85;29.37;96453.38;5016510;28;20067;-73
2021/03/25 09:00:08;;;;;;;5.53;3.45;;;25.50;20.90;;;20.89;29.88;96456.38;5016245;28;20068;-72
2021/03/25 09:02:51;;;;;;;7.93;3.72;;;25.50;21.20;;;21.02;30.14;96450.66;5029604;28;20038;-71
2021/03/25 09:05:36;;;;;;;8.60;5.40;;;25.60;21.00;;;21.09;28.89;96452.13;5021244;28;20041;-72
2021/03/25 09:08:06;;;;;;;12.85;4.90;;;25.40;21.60;;;21.15;29.86;96449.53;5015725;28;20108;-71
2021/03/25 09:10:47;;;;;;;11.57;4.63;;;24.90;21.90;;;21.26;28.56;96451.28;5016280;28;20071;-72
2021/03/25 09:13:22;;;;;;;7.55;4.50;;;25.10;21.90;;;21.42;29.01;96445.09;5028757;28;20029;-71
2021/03/25 09:15:48;;;;;;;11.48;4.90;;;25.10;21.50;;;21.51;31.73;96448.16;5015905;28;20124;-72
2021/03/25 09:18:17;;;;;;;8.73;4.55;;;24.90;21.90;;;21.50;29.83;96450.03;5031868;28;20044;-71
2021/03/25 09:20:47;;;;;;;12.13;5.90;;;24.60;22.00;;;21.48;29.44;96449.44;5065859;28;20037;-70
2021/03/25 09:23:31;;;;;;;7.97;4.95;;;24.40;22.40;;;21.42;28.70;96445.09;5029629;28;20057;-71
2021/03/25 09:26:01;;;;;;;8.63;5.07;;;24.10;23.10;;;21.47;30.49;96444.34;5047711;28;20038;-71
2021/03/25 09:29:01;;;;;;;8.77;4.68;;;24.20;22.80;;;21.72;28.04;96444.63;5049609;28;20029;-71
2021/03/25 09:31:47;;;;;;;8.75;5.53;;;24.70;22.60;;;21.90;28.19;96446.16;5034418;28;20581;-71
2021/03/25 09:34:12;;;;;;;9.68;5.07;;;24.90;22.10;;;22.16;29.73;96445.38;5020042;28;20037;-71
2021/03/25 09:36:45;;;;;;;8.18;5.13;;;25.20;22.40;;;22.43;29.61;96442.69;5048737;28;20048;-70
2021/03/25 09:39:30;;;;;;;8.27;4.88;;;25.30;22.00;;;22.69;27.23;96443.72;5031300;28;20096;-70
2021/03/25 09:41:59;;;;;;;6.97;4.68;;;25.50;21.90;;;22.93;28.66;96449.53;5026313;28;20116;-71
2021/03/25 09:44:34;;;;;;;8.18;5.00;;;25.70;21.80;;;23.15;26.38;96441.34;5020650;28;20124;-70
2021/03/25 09:47:00;;;;;;;8.35;5.03;;;25.70;21.10;;;23.22;29.21;96437.34;5031780;28;20075;-71
2021/03/25 09:49:53;;;;;;;7.50;4.80;;;25.60;22.10;;;23.45;26.00;96438.00;5060320;28;20076;-72
2021/03/25 09:52:40;;;;;;;7.28;4.60;;;26.00;21.00;;;23.75;26.71;96435.44;5040214;28;20090;-72
2021/03/25 09:55:06;;;;;;;8.38;5.35;;;26.50;21.50;;;24.04;28.10;96435.00;5009415;28;20036;-72
2021/03/25 09:57:31;;;;;;;7.47;5.00;;;26.50;21.10;;;24.14;28.03;96433.13;5050242;28;20415;-72
2021/03/25 10:00:25;;;;;;;11.98;6.63;;;26.50;20.70;;;24.36;25.12;96429.41;5049388;28;20044;-72
2021/03/25 10:03:06;;;;;;;7.35;5.15;;;27.30;20.60;;;24.77;26.06;96424.03;5052098;28;20090;-72
2021/03/25 10:05:33;;;;;;;9.38;5.07;;;28.00;20.00;;;25.18;28.04;96425.59;5041928;28;20847;-71
2021/03/25 10:08:19;;;;;;;9.70;5.47;;;28.40;19.20;;;25.84;24.35;96421.84;5052970;28;20033;-72
2021/03/25 10:10:57;;;;;;;7.40;4.95;;;29.00;18.30;;;26.32;23.80;96422.09;5010962;28;20025;-73
2021/03/25 10:13:37;;;;;;;7.75;5.15;;;29.20;17.70;;;26.90;23.19;96419.44;5029011;28;20044;-72
2021/03/25 10:16:45;;;;;;;12.65;9.35;;;30.00;17.50;;;27.68;21.96;96419.16;5041000;28;20037;-72
2021/03/25 10:19:11;;;;;;;14.40;11.50;;;30.70;17.00;;;28.22;24.89;96412.44;4992415;28;20102;-72
2021/03/25 10:21:55;;;;;;;10.30;6.05;;;31.30;16.30;;;28.76;21.19;96411.09;4991625;28;20026;-71
2021/03/25 10:24:28;;;;;;;7.70;4.95;;;31.70;15.70;;;29.04;21.33;96420.09;5046546;28;20037;-69
2021/03/25 10:27:22;;;;;;;8.68;6.57;;;31.50;16.40;;;29.43;20.47;96406.88;5015813;28;20038;-72
2021/03/25 10:29:48;;;;;;;9.80;5.53;;;32.00;15.40;;;29.77;22.80;96405.63;5036922;28;20033;-70
2021/03/25 10:32:29;;;;;;;8.95;6.13;;;32.50;15.10;;;30.09;19.86;96401.97;5027553;28;20133;-70
2021/03/25 10:34:59;;;;;;;9.48;6.70;;;32.60;14.50;;;30.22;20.38;96406.56;5028563;28;20033;-69
2021/03/25 10:37:36;;;;;;;10.90;7.15;;;32.40;15.00;;;30.45;19.60;96402.75;4995343;28;20428;-66
2021/03/25 10:40:20;;;;;;;9.40;6.38;;;32.50;14.60;;;30.72;19.32;96393.69;5036061;28;20067;-70
2021/03/25 10:43:21;;;;;;;9.07;7.22;;;33.30;14.40;;;31.00;17.97;96394.28;5048361;28;20033;-69
2021/03/25 10:45:58;;;;;;;10.95;7.70;;;33.10;14.10;;;31.20;17.87;96392.19;5018155;28;20072;-66
2021/03/25 10:48:37;;;;;;;11.32;7.40;;;33.20;14.00;;;31.42;18.23;96383.94;5045337;28;20515;-63
2021/03/25 10:51:13;;;;;;;11.50;7.50;;;33.60;13.80;;;31.64;18.03;96381.13;5020141;28;20040;-69
2021/03/25 10:53:45;;;;;;;13.38;7.57;;;33.40;14.00;;;31.84;18.48;96381.66;5036272;28;20067;-70
2021/03/25 10:56:37;;;;;;;10.48;7.35;;;33.70;13.60;;;32.01;17.19;96384.41;5038691;28;20048;-72
2021/03/25 10:59:14;;;;;;;17.60;7.20;;;33.50;14.00;;;32.31;18.02;96376.41;5038087;28;20044;-71
2021/03/25 11:01:54;;;;;;;10.82;7.30;;;33.70;13.50;;;32.49;17.09;96367.91;5036984;28;20067;-71
2021/03/25 11:04:31;;;;;;;9.35;7.30;;;33.50;14.00;;;32.52;16.84;96363.72;5062339;28;20055;-65
2021/03/25 11:07:18;;;;;;;10.95;7.65;;;33.50;13.80;;;32.58;16.65;96371.41;5049840;28;20041;-66
2021/03/25 11:09:58;;;;;;;10.77;7.53;;;33.10;14.10;;;32.60;17.01;96357.50;5045191;28;20041;-70
2021/03/25 11:12:34;;;;;;;;;;;33.40;14.20;;;32.76;16.76;96363.19;5039359;28;20029;-69
2021/03/25 11:15:19;;;;;;;10.45;7.10;;;32.80;14.10;;;32.84;16.36;96362.41;5032571;28;19920;-66